Time;durP1;ratioP1;P1;durP2;ratioP2;P2;SDS_P1;SDS_P2;PMS_P1;PMS_P2;Temp;Humidity;BMP_temperature;BMP_pressure;BME280_temperature;BME280_humidity;BME280_pressure;Samples;Min_cycle;Max_cycle;Signal;HPM_P1;HPM_P2
2023/08/29 00:02:21;;;;;;;1.48;0.40;;;21.50;96.70;;;;;;5055561;28;20498;-77
2023/08/29 00:04:49;;;;;;;2.38;0.50;;;21.50;96.70;;;;;;5041189;28;20676;-76
2023/08/29 00:07:19;;;;;;;1.00;0.50;;;21.50;96.70;;;;;;5030027;28;20360;-77
2023/08/29 00:09:47;;;;;;;2.53;0.38;;;21.50;96.70;;;;;;5051590;28;20411;-76
2023/08/29 00:12:14;;;;;;;3.50;0.63;;;21.50;96.70;;;;;;5051632;28;20383;-76
2023/08/29 00:14:42;;;;;;;1.05;0.32;;;21.50;96.70;;;;;;5045839;28;20045;-76
2023/08/29 00:17:10;;;;;;;3.28;0.47;;;21.50;96.70;;;;;;5050392;28;20041;-76
2023/08/29 00:19:38;;;;;;;1.58;0.30;;;21.40;96.70;;;;;;5030048;28;20056;-76
2023/08/29 00:22:06;;;;;;;1.85;0.60;;;21.40;96.70;;;;;;5046849;28;20084;-76
2023/08/29 00:24:36;;;;;;;3.40;0.77;;;21.40;96.70;;;;;;5064607;28;20047;-76
2023/08/29 00:27:04;;;;;;;4.00;0.73;;;21.50;96.70;;;;;;5063865;28;20048;-76
2023/08/29 00:29:32;;;;;;;7.10;0.82;;;21.50;96.70;;;;;;5045450;28;20048;-77
2023/08/29 00:32:00;;;;;;;1.98;0.50;;;21.50;96.70;;;;;;5049697;28;20036;-76
2023/08/29 00:34:29;;;;;;;1.33;0.63;;;21.50;96.70;;;;;;5042231;28;20542;-76
2023/08/29 00:36:57;;;;;;;2.63;0.70;;;21.60;96.70;;;;;;5040113;28;20051;-77
2023/08/29 00:39:25;;;;;;;5.97;0.90;;;21.60;96.70;;;;;;5040040;28;20053;-76
2023/08/29 00:41:56;;;;;;;3.85;0.75;;;21.50;96.70;;;;;;5040416;28;20048;-76
2023/08/29 00:44:24;;;;;;;2.70;0.77;;;21.50;96.70;;;;;;5040614;28;20610;-77
2023/08/29 00:46:53;;;;;;;5.88;1.33;;;21.50;96.70;;;;;;5040878;28;20458;-76
2023/08/29 00:49:23;;;;;;;3.67;0.73;;;21.50;96.70;;;;;;5039758;28;20052;-76
2023/08/29 00:51:52;;;;;;;5.50;1.10;;;21.50;96.70;;;;;;5058248;28;20457;-76
2023/08/29 00:54:21;;;;;;;2.20;0.70;;;21.50;96.70;;;;;;5042222;28;20738;-77
2023/08/29 00:56:49;;;;;;;3.63;1.00;;;21.60;96.70;;;;;;5041425;28;20080;-76
2023/08/29 00:59:20;;;;;;;3.92;0.80;;;21.60;96.70;;;;;;5039860;28;20045;-76
2023/08/29 01:01:49;;;;;;;4.60;0.95;;;21.60;96.70;;;;;;5040448;28;20592;-78
2023/08/29 01:04:18;;;;;;;2.63;0.60;;;21.60;96.70;;;;;;5038667;28;20132;-76
2023/08/29 01:06:46;;;;;;;1.77;0.50;;;21.60;96.70;;;;;;5024640;28;20048;-76
2023/08/29 01:09:14;;;;;;;2.10;0.63;;;21.60;96.70;;;;;;5024155;28;20044;-76
2023/08/29 01:11:48;;;;;;;5.13;0.88;;;21.60;96.70;;;;;;5040996;28;20052;-77
2023/08/29 01:14:26;;;;;;;2.80;0.65;;;21.60;96.70;;;;;;5057911;28;20520;-76
2023/08/29 01:17:03;;;;;;;4.75;0.88;;;21.50;96.70;;;;;;5034601;28;20133;-77
2023/08/29 01:19:34;;;;;;;4.43;1.20;;;21.40;96.70;;;;;;5042478;28;20127;-76
2023/08/29 01:22:16;;;;;;;3.72;1.13;;;21.40;96.70;;;;;;5073834;28;20049;-76
2023/08/29 01:24:49;;;;;;;5.72;1.20;;;21.40;96.70;;;;;;5036221;28;20040;-76
2023/08/29 01:27:20;;;;;;;4.75;0.90;;;21.40;96.70;;;;;;5041631;28;20847;-76
2023/08/29 01:29:49;;;;;;;3.97;0.88;;;21.40;96.70;;;;;;5043484;28;20814;-76
2023/08/29 01:32:17;;;;;;;3.90;0.80;;;21.30;96.70;;;;;;5057695;28;20360;-76
2023/08/29 01:34:45;;;;;;;2.83;0.82;;;21.30;96.70;;;;;;5052742;28;20139;-77
2023/08/29 01:37:13;;;;;;;2.97;0.93;;;21.30;96.70;;;;;;5040478;28;20133;-76
2023/08/29 01:39:42;;;;;;;2.97;0.93;;;21.30;96.70;;;;;;5039408;28;20048;-76
2023/08/29 01:42:10;;;;;;;3.53;0.80;;;21.20;96.70;;;;;;5039573;28;20132;-75
2023/08/29 01:44:40;;;;;;;2.65;0.80;;;21.20;96.70;;;;;;5039383;28;21622;-75
2023/08/29 01:47:08;;;;;;;4.45;0.65;;;21.10;96.70;;;;;;5039355;28;20051;-75
2023/08/29 01:49:37;;;;;;;4.13;0.90;;;21.10;96.70;;;;;;5047990;28;20044;-75
2023/08/29 01:52:06;;;;;;;4.15;1.10;;;21.10;96.70;;;;;;5039455;28;20598;-76
2023/08/29 01:54:34;;;;;;;3.58;1.13;;;21.10;96.70;;;;;;5042166;28;20044;-74
2023/08/29 01:57:06;;;;;;;2.92;0.75;;;21.00;96.70;;;;;;5044982;28;20044;-76
2023/08/29 01:59:34;;;;;;;2.88;0.70;;;21.10;96.70;;;;;;5043347;28;20047;-75
2023/08/29 02:02:03;;;;;;;2.00;1.00;;;21.10;96.70;;;;;;5031692;28;20044;-76
2023/08/29 02:04:31;;;;;;;7.68;1.10;;;21.10;96.70;;;;;;5030053;28;20052;-76
2023/08/29 02:07:00;;;;;;;4.35;1.00;;;21.20;96.70;;;;;;5032312;28;20047;-76
2023/08/29 02:09:27;;;;;;;3.65;1.05;;;21.10;96.70;;;;;;5057927;28;20048;-77
2023/08/29 02:11:55;;;;;;;4.18;1.05;;;21.10;96.70;;;;;;5066910;28;20529;-76
2023/08/29 02:14:25;;;;;;;2.53;0.82;;;21.10;96.70;;;;;;5047869;28;20044;-76
2023/08/29 02:16:53;;;;;;;4.13;1.00;;;21.20;96.70;;;;;;5044767;28;20040;-76
2023/08/29 02:19:23;;;;;;;2.97;0.73;;;21.20;96.70;;;;;;5048438;28;20577;-77
2023/08/29 02:21:51;;;;;;;2.67;0.90;;;21.10;96.70;;;;;;5066378;28;20049;-76
2023/08/29 02:24:19;;;;;;;6.13;0.98;;;21.00;96.70;;;;;;5046798;28;20132;-77
2023/08/29 02:26:46;;;;;;;2.90;0.90;;;21.00;96.70;;;;;;5064265;28;20045;-76
2023/08/29 02:29:17;;;;;;;4.88;1.40;;;21.10;96.70;;;;;;5046976;28;20131;-76
2023/08/29 02:31:45;;;;;;;4.70;1.52;;;21.10;96.70;;;;;;5047528;28;20143;-76
2023/08/29 02:34:13;;;;;;;3.63;1.08;;;21.10;96.70;;;;;;5061582;28;20040;-76
2023/08/29 02:36:43;;;;;;;3.15;1.17;;;21.10;96.70;;;;;;5043227;28;20155;-78
2023/08/29 02:39:11;;;;;;;2.80;0.65;;;21.10;96.70;;;;;;5042941;28;20047;-76
2023/08/29 02:41:39;;;;;;;3.50;0.95;;;21.10;96.70;;;;;;5041850;28;20055;-77
2023/08/29 02:44:07;;;;;;;3.92;0.77;;;21.10;96.70;;;;;;5061403;28;20041;-77
2023/08/29 02:46:35;;;;;;;1.13;0.35;;;21.10;96.70;;;;;;5042967;28;20090;-77
2023/08/29 02:49:03;;;;;;;0.68;0.30;;;21.10;96.70;;;;;;5042806;28;20048;-77
2023/08/29 02:51:32;;;;;;;1.30;0.22;;;21.10;96.70;;;;;;5042743;28;20695;-77
2023/08/29 02:54:01;;;;;;;0.08;0.00;;;21.10;96.70;;;;;;5061191;28;20044;-77
2023/08/29 02:56:29;;;;;;;0.45;0.17;;;21.20;96.70;;;;;;5042653;28;20049;-77
2023/08/29 02:58:57;;;;;;;0.68;0.20;;;21.10;96.70;;;;;;5035002;28;20409;-77
2023/08/29 03:01:27;;;;;;;0.57;0.20;;;21.10;96.70;;;;;;5043372;28;20036;-77
2023/08/29 03:03:55;;;;;;;0.82;0.20;;;21.10;96.70;;;;;;5042033;28;20049;-77
2023/08/29 03:06:24;;;;;;;1.23;0.17;;;21.10;96.70;;;;;;5044445;28;20058;-76
2023/08/29 03:08:52;;;;;;;0.73;0.25;;;21.10;96.70;;;;;;5042086;28;20147;-77
2023/08/29 03:11:21;;;;;;;0.30;0.10;;;21.00;96.70;;;;;;5065552;28;20071;-76
2023/08/29 03:13:50;;;;;;;1.13;0.20;;;21.10;96.70;;;;;;5043562;28;20498;-76
2023/08/29 03:16:18;;;;;;;0.93;0.15;;;21.20;96.70;;;;;;5041629;28;20052;-77
2023/08/29 03:18:47;;;;;;;2.13;0.20;;;21.20;96.70;;;;;;5065937;28;20779;-76
2023/08/29 03:21:15;;;;;;;1.17;0.20;;;21.20;96.70;;;;;;5060261;28;20174;-76
2023/08/29 03:23:44;;;;;;;1.75;0.30;;;21.10;96.70;;;;;;5063655;28;20049;-77
2023/08/29 03:26:12;;;;;;;1.48;0.32;;;21.10;96.70;;;;;;5041269;28;20128;-77
2023/08/29 03:28:45;;;;;;;1.10;0.20;;;21.10;96.70;;;;;;5026345;28;20052;-77
2023/08/29 03:31:15;;;;;;;0.98;0.30;;;21.10;96.70;;;;;;5060248;28;20490;-77
2023/08/29 03:33:43;;;;;;;1.48;0.30;;;21.20;96.70;;;;;;5045005;28;20055;-76
2023/08/29 03:36:12;;;;;;;1.25;0.25;;;21.30;96.70;;;;;;5043435;28;20079;-76
2023/08/29 03:38:42;;;;;;;0.40;0.10;;;21.30;96.70;;;;;;5045937;28;20417;-76
2023/08/29 03:41:10;;;;;;;1.30;0.30;;;21.30;96.70;;;;;;5046440;28;20052;-76
2023/08/29 03:43:38;;;;;;;1.73;0.20;;;21.20;96.70;;;;;;5046879;28;20044;-76
2023/08/29 03:46:10;;;;;;;0.30;0.28;;;21.20;96.70;;;;;;5043281;28;20045;-77
2023/08/29 03:48:38;;;;;;;0.93;0.20;;;21.20;96.70;;;;;;5027254;28;20059;-77
2023/08/29 03:51:07;;;;;;;0.60;0.10;;;21.20;96.70;;;;;;5035988;28;20040;-77
2023/08/29 03:53:36;;;;;;;1.05;0.20;;;21.20;96.70;;;;;;5043814;28;20055;-76
2023/08/29 03:56:08;;;;;;;1.63;0.10;;;21.20;96.70;;;;;;5041720;28;20053;-76
2023/08/29 03:58:37;;;;;;;0.95;0.10;;;21.20;96.70;;;;;;5051331;28;20127;-76
2023/08/29 04:01:07;;;;;;;1.02;0.20;;;21.20;96.70;;;;;;5025217;28;20628;-76
2023/08/29 04:03:37;;;;;;;1.67;0.20;;;21.10;96.70;;;;;;5038212;28;20545;-76
2023/08/29 04:06:06;;;;;;;0.68;0.15;;;21.00;96.70;;;;;;5046531;28;20048;-76
2023/08/29 04:08:34;;;;;;;1.60;0.30;;;21.00;96.70;;;;;;5028416;28;20458;-76
2023/08/29 04:11:04;;;;;;;0.93;0.20;;;21.00;96.70;;;;;;5043026;28;20117;-77
2023/08/29 04:13:33;;;;;;;0.35;0.10;;;21.00;96.70;;;;;;5045876;28;20205;-76
2023/08/29 04:16:02;;;;;;;2.53;0.20;;;21.00;96.70;;;;;;5046175;28;20072;-77
2023/08/29 04:18:31;;;;;;;1.45;0.17;;;20.90;96.70;;;;;;5045893;28;20159;-77
2023/08/29 04:21:02;;;;;;;0.40;0.20;;;20.90;96.70;;;;;;5066840;28;20505;-76
2023/08/29 04:23:31;;;;;;;2.83;0.38;;;21.00;96.70;;;;;;5045661;28;20409;-77
2023/08/29 04:25:59;;;;;;;1.88;0.40;;;21.00;96.70;;;;;;5042417;28;20036;-77
2023/08/29 04:28:27;;;;;;;1.35;0.20;;;20.90;96.70;;;;;;5028257;28;20036;-77
2023/08/29 04:30:56;;;;;;;2.92;0.30;;;20.90;96.70;;;;;;5032393;28;20419;-76
2023/08/29 04:33:24;;;;;;;1.40;0.40;;;20.90;96.70;;;;;;5032024;28;20041;-77
2023/08/29 04:35:54;;;;;;;0.57;0.17;;;20.90;96.70;;;;;;5030025;28;20048;-77
2023/08/29 04:38:23;;;;;;;0.80;0.20;;;20.90;96.70;;;;;;5022421;28;20037;-77
2023/08/29 04:40:53;;;;;;;1.33;0.30;;;20.90;96.70;;;;;;5026605;28;20049;-77
2023/08/29 04:43:22;;;;;;;1.88;0.30;;;20.90;96.70;;;;;;5038549;28;20140;-77
2023/08/29 04:45:51;;;;;;;2.80;0.40;;;20.90;96.70;;;;;;5029715;28;20041;-76
2023/08/29 04:48:19;;;;;;;0.52;0.20;;;20.90;96.70;;;;;;5044053;28;20044;-77
2023/08/29 04:50:47;;;;;;;1.27;0.47;;;20.90;96.70;;;;;;5014446;28;20118;-77
2023/08/29 04:53:16;;;;;;;1.58;0.25;;;20.90;96.70;;;;;;5028925;28;20464;-77
2023/08/29 04:55:45;;;;;;;1.80;0.30;;;20.90;96.70;;;;;;5018602;28;20037;-77
2023/08/29 04:58:13;;;;;;;2.45;0.60;;;21.00;96.70;;;;;;5030565;28;20075;-77
2023/08/29 05:00:42;;;;;;;1.40;0.50;;;21.00;96.70;;;;;;5043624;28;20051;-77
2023/08/29 05:03:10;;;;;;;1.70;0.40;;;21.10;96.70;;;;;;5026363;28;20057;-76
2023/08/29 05:05:38;;;;;;;1.58;0.47;;;21.10;96.70;;;;;;5027190;28;20065;-77
2023/08/29 05:08:08;;;;;;;1.52;0.40;;;21.10;96.70;;;;;;5032426;28;20045;-77
2023/08/29 05:10:37;;;;;;;1.48;0.20;;;21.10;96.70;;;;;;5022871;28;20068;-77
2023/08/29 05:13:06;;;;;;;0.80;0.30;;;21.20;96.70;;;;;;5027845;28;20498;-77
2023/08/29 05:15:34;;;;;;;3.58;0.50;;;21.20;96.70;;;;;;5031522;28;20081;-76
2023/08/29 05:18:02;;;;;;;2.20;0.70;;;21.20;96.70;;;;;;5022880;28;20046;-77
2023/08/29 05:20:32;;;;;;;1.50;0.50;;;21.20;96.70;;;;;;5030872;28;20537;-76
2023/08/29 05:23:00;;;;;;;1.50;0.38;;;21.10;96.70;;;;;;5014430;28;20124;-76
2023/08/29 05:25:28;;;;;;;1.95;0.47;;;21.20;96.70;;;;;;5022258;28;20045;-77
2023/08/29 05:27:56;;;;;;;2.30;0.43;;;21.20;96.70;;;;;;5060585;28;20045;-77
2023/08/29 05:30:25;;;;;;;1.58;0.38;;;21.10;96.70;;;;;;5035041;28;20132;-77
2023/08/29 05:32:54;;;;;;;5.97;0.88;;;21.10;96.70;;;;;;5038024;28;20040;-77
2023/08/29 05:35:22;;;;;;;2.67;0.35;;;21.10;96.70;;;;;;5033226;28;20048;-78
2023/08/29 05:37:50;;;;;;;3.45;0.70;;;21.10;96.70;;;;;;5009484;28;20045;-77
2023/08/29 05:40:18;;;;;;;2.08;0.65;;;21.20;96.70;;;;;;5025712;28;20049;-78
2023/08/29 05:42:46;;;;;;;3.83;0.70;;;21.20;96.70;;;;;;5035082;28;20203;-78
2023/08/29 05:45:15;;;;;;;3.25;1.10;;;21.20;96.70;;;;;;5038829;28;20056;-75
2023/08/29 05:47:44;;;;;;;2.08;0.57;;;21.20;96.70;;;;;;5023250;28;20051;-77
2023/08/29 05:50:12;;;;;;;4.97;1.23;;;21.30;96.70;;;;;;5018582;28;20037;-76
2023/08/29 05:52:40;;;;;;;2.97;0.93;;;21.40;96.70;;;;;;5022067;28;20152;-76
2023/08/29 05:55:08;;;;;;;6.15;1.02;;;21.40;96.70;;;;;;5024325;28;20120;-78
2023/08/29 05:57:36;;;;;;;3.97;1.13;;;21.50;96.70;;;;;;5025524;28;20143;-80
2023/08/29 06:00:13;;;;;;;4.03;1.08;;;21.60;96.70;;;;;;5031543;28;20554;-77
2023/08/29 06:02:41;;;;;;;;;;;21.60;96.70;;;;;;5026780;28;20457;-76
2023/08/29 06:05:11;;;;;;;4.57;0.73;;;21.60;96.70;;;;;;5041043;28;20298;-77
2023/08/29 06:07:39;;;;;;;1.55;0.52;;;21.60;96.70;;;;;;5030784;28;20045;-77
2023/08/29 06:10:08;;;;;;;3.47;0.80;;;21.60;96.70;;;;;;5021277;28;20476;-76
2023/08/29 06:12:36;;;;;;;1.90;0.52;;;21.80;96.70;;;;;;5023763;28;20514;-76
2023/08/29 06:15:08;;;;;;;4.25;0.63;;;21.80;96.70;;;;;;5024386;28;20055;-76
2023/08/29 06:17:36;;;;;;;4.63;0.75;;;21.90;96.70;;;;;;5041890;28;20045;-75
2023/08/29 06:20:06;;;;;;;3.78;1.13;;;21.80;96.70;;;;;;5040973;28;20064;-76
2023/08/29 06:22:36;;;;;;;1.65;0.50;;;21.80;96.70;;;;;;5029953;28;20495;-77
2023/08/29 06:25:05;;;;;;;3.35;0.77;;;21.90;96.70;;;;;;5033604;28;20438;-76
2023/08/29 06:27:33;;;;;;;4.43;0.80;;;22.10;96.70;;;;;;5021994;28;20137;-76
2023/08/29 06:30:02;;;;;;;2.13;0.65;;;22.10;96.70;;;;;;5028805;28;20542;-76
2023/08/29 06:32:31;;;;;;;5.00;0.88;;;22.20;96.70;;;;;;5023536;28;20046;-76
2023/08/29 06:34:59;;;;;;;3.53;0.80;;;22.30;96.70;;;;;;5021926;28;20456;-77
2023/08/29 06:37:27;;;;;;;6.25;0.80;;;22.30;96.70;;;;;;5019649;28;20050;-75
2023/08/29 06:39:57;;;;;;;4.93;0.85;;;22.10;96.70;;;;;;5022661;28;20732;-76
2023/08/29 06:42:25;;;;;;;3.55;0.95;;;22.00;96.70;;;;;;5023452;28;20050;-77
2023/08/29 06:44:57;;;;;;;2.60;0.70;;;22.20;96.70;;;;;;5025609;28;20680;-76
2023/08/29 06:47:25;;;;;;;3.10;0.70;;;22.20;96.70;;;;;;5025397;28;20499;-76
2023/08/29 06:49:54;;;;;;;3.58;0.93;;;22.30;96.70;;;;;;5026786;28;20499;-76
2023/08/29 06:52:22;;;;;;;3.78;1.10;;;22.30;96.70;;;;;;5026345;28;20045;-77
2023/08/29 06:54:52;;;;;;;2.92;0.75;;;22.30;96.70;;;;;;5025429;28;21051;-77
2023/08/29 06:57:22;;;;;;;3.20;0.73;;;22.30;96.70;;;;;;5019491;28;20504;-77
2023/08/29 06:59:50;;;;;;;4.65;0.90;;;22.30;96.70;;;;;;5026473;28;20076;-77
2023/08/29 07:02:18;;;;;;;3.83;1.00;;;22.40;96.70;;;;;;5025344;28;20491;-77
2023/08/29 07:04:46;;;;;;;3.38;0.88;;;22.30;96.70;;;;;;5024971;28;20041;-77
2023/08/29 07:07:14;;;;;;;2.80;0.68;;;22.40;96.70;;;;;;5025313;28;20041;-77
2023/08/29 07:09:43;;;;;;;2.50;0.65;;;22.50;96.70;;;;;;5019351;28;20041;-77
2023/08/29 07:12:11;;;;;;;4.70;0.88;;;22.50;96.70;;;;;;5024690;28;20613;-75
2023/08/29 07:14:41;;;;;;;2.53;0.75;;;22.70;96.70;;;;;;5024662;28;20072;-77
2023/08/29 07:17:09;;;;;;;2.15;0.70;;;22.80;96.70;;;;;;5025915;28;20056;-76
2023/08/29 07:19:38;;;;;;;3.72;1.08;;;22.90;96.70;;;;;;5024099;28;20140;-77
2023/08/29 07:22:06;;;;;;;4.70;0.75;;;23.00;96.70;;;;;;5026747;28;20041;-76
2023/08/29 07:24:51;;;;;;;6.15;1.00;;;23.00;96.70;;;;;;5024693;28;20472;-77
2023/08/29 07:27:19;;;;;;;3.95;0.77;;;23.10;96.70;;;;;;5025601;28;20472;-76
2023/08/29 07:29:49;;;;;;;4.10;1.02;;;23.20;96.70;;;;;;5029584;28;20784;-77
2023/08/29 07:32:17;;;;;;;5.05;1.10;;;23.20;96.70;;;;;;5047516;28;20829;-77
2023/08/29 07:34:45;;;;;;;3.03;1.05;;;23.10;96.70;;;;;;5054322;28;20045;-76
2023/08/29 07:37:14;;;;;;;1.75;0.70;;;23.10;96.70;;;;;;5044277;28;20288;-78
2023/08/29 07:39:43;;;;;;;3.55;0.70;;;23.30;96.70;;;;;;5047268;28;20054;-76
2023/08/29 07:42:11;;;;;;;3.20;0.80;;;23.50;96.70;;;;;;5047503;28;20075;-76
2023/08/29 07:44:39;;;;;;;2.95;0.75;;;23.50;96.70;;;;;;5056553;28;20547;-78
2023/08/29 07:47:08;;;;;;;1.95;0.60;;;23.60;96.70;;;;;;5063198;28;20544;-77
2023/08/29 07:49:42;;;;;;;2.53;0.95;;;23.70;96.70;;;;;;5055910;28;20037;-76
2023/08/29 07:52:10;;;;;;;2.97;0.98;;;23.70;96.70;;;;;;5046748;28;20415;-76
2023/08/29 07:54:39;;;;;;;3.97;1.35;;;23.60;96.70;;;;;;5064782;28;20062;-77
2023/08/29 07:57:07;;;;;;;3.00;1.00;;;23.60;96.70;;;;;;5064878;28;20041;-76
2023/08/29 07:59:36;;;;;;;2.95;0.93;;;23.70;96.70;;;;;;5057245;28;20048;-77
2023/08/29 08:02:05;;;;;;;3.97;0.98;;;23.70;96.70;;;;;;5044747;28;20041;-76
2023/08/29 08:04:35;;;;;;;3.05;0.70;;;23.90;96.70;;;;;;5046675;28;20086;-77
2023/08/29 08:07:04;;;;;;;1.92;0.75;;;24.00;96.70;;;;;;5064749;28;20090;-76
2023/08/29 08:09:33;;;;;;;2.08;0.70;;;24.00;96.70;;;;;;5030715;28;20435;-77
2023/08/29 08:12:02;;;;;;;1.55;0.55;;;24.00;96.70;;;;;;5045699;28;20475;-77
2023/08/29 08:14:30;;;;;;;1.55;0.60;;;24.00;96.70;;;;;;5052826;28;20122;-76
2023/08/29 08:16:58;;;;;;;2.63;0.77;;;24.00;96.70;;;;;;5043382;28;20057;-77
2023/08/29 08:19:26;;;;;;;2.70;0.63;;;23.80;96.70;;;;;;5054889;28;20037;-77
2023/08/29 08:21:56;;;;;;;3.80;0.70;;;23.90;96.70;;;;;;5046668;28;20128;-76
2023/08/29 08:24:24;;;;;;;2.95;0.68;;;24.00;96.70;;;;;;5050570;28;20048;-77
2023/08/29 08:26:52;;;;;;;2.42;0.60;;;24.10;96.70;;;;;;5063711;28;20048;-77
2023/08/29 08:29:20;;;;;;;2.00;0.68;;;24.20;96.70;;;;;;5046050;28;20498;-76
2023/08/29 08:31:48;;;;;;;1.90;0.60;;;24.20;96.70;;;;;;5051968;28;20804;-76
2023/08/29 08:34:16;;;;;;;2.00;0.55;;;24.10;96.70;;;;;;5045898;28;20562;-76
2023/08/29 08:36:45;;;;;;;3.05;0.63;;;24.20;96.70;;;;;;5042657;28;20041;-76
2023/08/29 08:39:14;;;;;;;2.50;0.50;;;24.10;96.70;;;;;;5045057;28;20045;-76
2023/08/29 08:41:43;;;;;;;2.53;0.50;;;24.00;96.70;;;;;;5045260;28;20044;-76
2023/08/29 08:44:15;;;;;;;3.33;1.08;;;23.90;96.70;;;;;;5045941;28;20051;-76
2023/08/29 08:46:44;;;;;;;3.90;0.88;;;23.90;96.70;;;;;;5064407;28;20040;-76
2023/08/29 08:49:13;;;;;;;2.40;0.77;;;23.70;96.70;;;;;;5045811;28;20044;-76
2023/08/29 08:51:41;;;;;;;2.72;1.00;;;23.60;96.70;;;;;;5044688;28;20143;-76
2023/08/29 08:54:10;;;;;;;2.88;0.57;;;23.40;96.70;;;;;;5045004;28;20056;-76
2023/08/29 08:56:42;;;;;;;1.83;0.80;;;23.30;96.70;;;;;;5044919;28;20064;-77
2023/08/29 08:59:10;;;;;;;3.88;1.40;;;23.20;96.70;;;;;;5073289;28;20080;-76
2023/08/29 09:01:38;;;;;;;4.18;1.30;;;23.10;96.70;;;;;;5043188;28;20044;-76
2023/08/29 09:04:07;;;;;;;11.23;1.40;;;22.90;96.70;;;;;;5045011;28;20051;-76
2023/08/29 09:06:35;;;;;;;3.75;1.20;;;22.60;96.70;;;;;;5045679;28;20833;-76
2023/08/29 09:09:19;;;;;;;3.38;1.40;;;22.40;96.70;;;;;;5063438;28;20052;-75
2023/08/29 09:11:54;;;;;;;3.80;1.17;;;22.10;96.70;;;;;;5054885;28;20043;-76
2023/08/29 09:14:23;;;;;;;2.67;1.10;;;21.90;96.70;;;;;;5045163;28;20098;-76
2023/08/29 09:16:56;;;;;;;2.30;1.00;;;21.70;96.70;;;;;;5028920;28;20059;-76
2023/08/29 09:19:25;;;;;;;4.43;1.33;;;21.60;96.70;;;;;;5063644;28;20068;-75
2023/08/29 09:21:54;;;;;;;7.18;1.48;;;21.50;96.70;;;;;;5063978;28;20036;-75
2023/08/29 09:24:33;;;;;;;3.47;1.10;;;21.50;96.70;;;;;;5063552;28;20055;-75
2023/08/29 09:27:07;;;;;;;2.83;1.00;;;21.30;96.70;;;;;;5050296;28;20040;-76
2023/08/29 09:29:35;;;;;;;3.72;1.20;;;21.20;96.70;;;;;;5043722;28;20510;-76
2023/08/29 09:32:13;;;;;;;2.53;1.00;;;21.30;96.70;;;;;;5042073;28;20454;-76
2023/08/29 09:34:42;;;;;;;3.60;1.10;;;21.30;96.70;;;;;;5069047;28;20092;-76
2023/08/29 09:37:14;;;;;;;2.63;0.90;;;21.50;96.70;;;;;;5054732;28;20052;-75
2023/08/29 09:39:42;;;;;;;4.00;1.10;;;21.50;96.70;;;;;;5048708;28;20040;-76
2023/08/29 09:42:11;;;;;;;3.72;0.80;;;21.50;96.70;;;;;;5054262;28;20045;-76
2023/08/29 09:44:40;;;;;;;3.10;0.80;;;21.50;96.70;;;;;;5052085;28;20461;-76
2023/08/29 09:47:11;;;;;;;2.22;1.00;;;21.40;96.70;;;;;;5063357;28;20123;-77
2023/08/29 09:49:42;;;;;;;2.40;0.65;;;21.50;96.70;;;;;;5058862;28;20131;-77
2023/08/29 09:52:11;;;;;;;2.10;0.70;;;21.50;96.70;;;;;;5052575;28;20048;-76
2023/08/29 09:54:43;;;;;;;2.08;0.70;;;21.60;96.70;;;;;;5046340;28;20049;-77
2023/08/29 09:57:15;;;;;;;2.00;0.68;;;21.80;96.70;;;;;;5044807;28;20060;-76
2023/08/29 09:59:44;;;;;;;3.15;0.82;;;22.00;96.70;;;;;;5053576;28;20037;-76
2023/08/29 10:02:14;;;;;;;2.45;0.65;;;22.20;96.70;;;;;;5043056;28;20609;-76
2023/08/29 10:04:45;;;;;;;1.85;0.50;;;22.30;96.70;;;;;;5044605;28;20128;-76
2023/08/29 10:07:16;;;;;;;1.35;0.50;;;22.30;96.70;;;;;;5046656;28;20128;-76
2023/08/29 10:09:44;;;;;;;1.25;0.50;;;22.20;96.70;;;;;;5045151;28;20793;-76
2023/08/29 10:12:14;;;;;;;1.92;0.70;;;22.40;96.70;;;;;;5048243;28;20140;-76
2023/08/29 10:14:44;;;;;;;2.75;0.63;;;22.50;96.70;;;;;;5045097;28;20079;-75
2023/08/29 10:17:13;;;;;;;1.88;0.45;;;22.50;96.70;;;;;;5046389;28;20048;-75
2023/08/29 10:20:09;;;;;;;2.20;0.70;;;22.60;96.70;;;;;;5046509;28;20084;-76
2023/08/29 10:22:41;;;;;;;2.28;0.90;;;22.70;96.70;;;;;;5043159;28;20033;-75
2023/08/29 10:25:10;;;;;;;3.05;0.93;;;22.90;96.70;;;;;;5040140;28;20585;-77
2023/08/29 10:27:41;;;;;;;1.88;0.77;;;23.10;96.70;;;;;;5043936;28;20152;-77
2023/08/29 10:30:11;;;;;;;3.83;1.15;;;23.30;96.70;;;;;;5058408;28;20518;-76
2023/08/29 10:32:41;;;;;;;2.72;1.00;;;23.20;96.70;;;;;;5066918;28;20124;-76
2023/08/29 10:35:17;;;;;;;2.83;0.90;;;23.10;96.70;;;;;;5065760;28;20445;-76
2023/08/29 10:37:49;;;;;;;;;;;23.20;96.70;;;;;;5048533;28;20083;-77
2023/08/29 10:40:17;;;;;;;2.88;1.13;;;23.30;96.70;;;;;;5053480;28;19925;-76
2023/08/29 10:42:54;;;;;;;3.55;1.10;;;23.50;96.70;;;;;;5041487;28;20041;-76
2023/08/29 10:45:41;;;;;;;2.83;0.63;;;23.70;96.70;;;;;;5048071;28;20044;-76
2023/08/29 10:48:09;;;;;;;3.45;1.20;;;23.90;96.70;;;;;;5031918;28;20087;-77
2023/08/29 10:50:38;;;;;;;2.25;0.63;;;24.10;96.70;;;;;;5048331;28;20040;-77
2023/08/29 10:53:18;;;;;;;5.03;1.23;;;24.20;96.70;;;;;;5048527;28;20090;-77
2023/08/29 10:56:00;;;;;;;3.25;0.80;;;24.40;96.70;;;;;;5040320;28;20045;-76
2023/08/29 10:58:34;;;;;;;3.00;1.08;;;24.30;96.70;;;;;;5065942;28;20052;-76
2023/08/29 11:01:04;;;;;;;2.05;0.80;;;24.40;96.70;;;;;;5045140;28;20072;-77
2023/08/29 11:03:48;;;;;;;2.70;0.95;;;24.30;96.70;;;;;;5055536;28;20498;-76
2023/08/29 11:06:18;;;;;;;4.05;1.27;;;24.40;96.70;;;;;;5065992;28;20075;-76
2023/08/29 11:08:46;;;;;;;1.02;0.60;;;24.50;96.70;;;;;;5063072;28;20043;-76
2023/08/29 11:11:16;;;;;;;2.75;0.95;;;24.50;96.70;;;;;;5049556;28;20051;-76
2023/08/29 11:14:00;;;;;;;5.40;1.00;;;24.60;96.70;;;;;;5030143;28;20085;-76
2023/08/29 11:16:29;;;;;;;2.20;0.70;;;24.60;96.70;;;;;;5047459;28;20079;-77
2023/08/29 11:19:09;;;;;;;2.45;0.73;;;24.70;96.70;;;;;;5045310;28;20040;-77
2023/08/29 11:21:38;;;;;;;2.63;0.80;;;24.50;96.70;;;;;;5063027;28;20060;-76
2023/08/29 11:24:07;;;;;;;3.42;1.02;;;24.60;96.70;;;;;;5045706;28;20090;-76
2023/08/29 11:26:39;;;;;;;2.10;0.75;;;24.50;96.70;;;;;;5045031;28;20067;-77
2023/08/29 11:29:09;;;;;;;4.18;1.10;;;24.60;96.70;;;;;;5064585;28;20110;-78
2023/08/29 11:31:42;;;;;;;2.20;0.68;;;24.60;96.70;;;;;;5065188;28;20554;-78
2023/08/29 11:34:15;;;;;;;3.17;0.60;;;24.50;96.70;;;;;;5044333;28;20040;-77
2023/08/29 11:36:46;;;;;;;1.13;0.40;;;24.50;96.70;;;;;;5047985;28;20598;-77
2023/08/29 11:39:17;;;;;;;2.13;0.60;;;24.30;96.70;;;;;;5063216;28;20581;-77
2023/08/29 11:41:46;;;;;;;2.35;0.77;;;24.30;96.70;;;;;;5045137;28;20048;-78
2023/08/29 11:44:35;;;;;;;2.35;0.57;;;24.30;96.70;;;;;;5048168;28;20167;-77
2023/08/29 11:47:25;;;;;;;3.00;0.70;;;24.10;96.70;;;;;;5048079;28;20037;-78
2023/08/29 11:49:53;;;;;;;2.42;0.70;;;24.20;96.70;;;;;;5027798;28;20040;-78
2023/08/29 11:52:22;;;;;;;3.88;0.63;;;24.20;96.70;;;;;;5064049;28;20655;-78
2023/08/29 11:54:55;;;;;;;1.05;0.50;;;24.00;96.70;;;;;;5046709;28;20052;-77
2023/08/29 11:57:31;;;;;;;1.75;0.65;;;24.00;96.70;;;;;;5047370;28;20041;-78
2023/08/29 12:00:00;;;;;;;1.42;0.50;;;24.00;96.70;;;;;;5044746;28;20465;-77
2023/08/29 12:02:33;;;;;;;1.85;0.45;;;23.90;96.70;;;;;;5043790;28;20057;-78
2023/08/29 12:05:07;;;;;;;2.55;0.60;;;23.90;96.70;;;;;;5044633;28;20048;-78
2023/08/29 12:07:35;;;;;;;1.63;0.57;;;23.90;96.70;;;;;;5045622;28;20049;-77
2023/08/29 12:10:08;;;;;;;2.78;0.93;;;23.80;96.70;;;;;;5046366;28;20044;-79
2023/08/29 12:12:37;;;;;;;4.28;1.00;;;23.70;96.70;;;;;;5029763;28;20040;-77
2023/08/29 12:15:11;;;;;;;1.67;0.77;;;23.70;96.70;;;;;;5054637;28;20033;-78
2023/08/29 12:17:40;;;;;;;2.00;0.60;;;23.60;96.70;;;;;;5047033;28;20045;-80
2023/08/29 12:20:29;;;;;;;1.85;0.50;;;23.70;96.70;;;;;;5046664;28;20049;-79
2023/08/29 12:22:57;;;;;;;2.50;0.60;;;23.90;96.70;;;;;;5047592;28;20052;-77
2023/08/29 12:25:26;;;;;;;4.68;0.73;;;23.70;96.70;;;;;;5044282;28;20055;-76
2023/08/29 12:27:55;;;;;;;2.83;0.80;;;23.60;96.70;;;;;;5062050;28;20048;-81
2023/08/29 12:30:24;;;;;;;1.63;0.77;;;23.70;96.70;;;;;;5048279;28;20048;-79
2023/08/29 12:32:53;;;;;;;2.40;0.50;;;23.80;96.70;;;;;;5046434;28;20044;-79
2023/08/29 12:35:21;;;;;;;2.30;0.40;;;24.00;96.70;;;;;;5051909;28;20040;-77
2023/08/29 12:37:50;;;;;;;2.28;0.50;;;24.10;96.70;;;;;;5045683;28;20151;-77
2023/08/29 12:40:18;;;;;;;2.75;0.52;;;24.20;96.70;;;;;;5042915;28;20052;-79
2023/08/29 12:42:49;;;;;;;2.30;0.65;;;24.40;96.70;;;;;;5029186;28;20049;-77
2023/08/29 12:45:18;;;;;;;0.98;0.28;;;24.60;96.70;;;;;;5046719;28;20052;-77
2023/08/29 12:47:48;;;;;;;1.58;0.40;;;24.80;96.70;;;;;;5045961;28;20514;-77
2023/08/29 12:50:17;;;;;;;1.42;0.45;;;25.00;96.70;;;;;;5053318;28;20128;-78
2023/08/29 12:52:45;;;;;;;0.90;0.40;;;25.40;96.70;;;;;;5029859;28;21577;-78
2023/08/29 12:55:14;;;;;;;2.28;0.50;;;25.50;96.70;;;;;;5042758;28;20048;-80
2023/08/29 12:57:43;;;;;;;1.05;0.50;;;25.20;96.70;;;;;;5056481;28;20119;-81
2023/08/29 13:00:12;;;;;;;1.00;0.50;;;25.10;96.70;;;;;;5063248;28;20041;-78
2023/08/29 13:02:40;;;;;;;1.75;0.52;;;25.30;96.70;;;;;;5046705;28;20064;-79